createdAt,value
2023-04-01T00:00:19.942Z,73.38
2023-04-01T00:02:52.231Z,74.28
2023-04-01T00:05:22.190Z,73.92
2023-04-01T00:07:52.938Z,73.87
2023-04-01T00:10:21.415Z,73.18
2023-04-01T00:12:51.013Z,73.87
2023-04-01T00:15:19.444Z,73.35
2023-04-01T00:17:47.618Z,73.31
2023-04-01T00:20:16.711Z,73.31
2023-04-01T00:22:47.860Z,72.98
2023-04-01T00:25:18.677Z,73.51
2023-04-01T00:27:49.393Z,73.16
2023-04-01T00:30:20.297Z,73.09
2023-04-01T00:32:48.406Z,73.65
2023-04-01T00:35:17.297Z,73.99
2023-04-01T00:37:45.906Z,73.96
2023-04-01T00:40:29.228Z,73.76
2023-04-01T00:42:57.440Z,73.68
2023-04-01T00:45:39.923Z,73.32
2023-04-01T00:48:12.961Z,73.43
2023-04-01T00:50:46.222Z,73.34
2023-04-01T00:53:19.133Z,73.07
2023-04-01T00:55:56.272Z,73.24
2023-04-01T00:58:31.284Z,73.16
2023-04-01T01:01:02.309Z,73.51
2023-04-01T01:03:32.085Z,73.02
2023-04-01T01:06:35.704Z,72.84
2023-04-01T01:09:22.733Z,72.89
2023-04-01T01:11:56.839Z,72.63
2023-04-01T01:14:38.705Z,72.38
2023-04-01T01:17:17.208Z,72.52
2023-04-01T01:20:23.069Z,72.68
2023-04-01T01:23:25.795Z,72.63
2023-04-01T01:26:08.956Z,72.37
2023-04-01T01:28:52.136Z,71.98
2023-04-01T01:31:27.675Z,72.05
2023-04-01T01:34:12.786Z,71.67
2023-04-01T01:36:48.679Z,71.89
2023-04-01T01:39:21.418Z,71.75
2023-04-01T01:41:53.022Z,72.21
2023-04-01T01:44:22.788Z,71.89
2023-04-01T01:46:54.816Z,72.00
2023-04-01T01:49:24.962Z,71.90
2023-04-01T01:51:55.462Z,72.08
2023-04-01T01:54:25.676Z,71.98
2023-04-01T01:57:02.414Z,72.07
2023-04-01T01:59:34.040Z,72.78
2023-04-01T02:02:09.837Z,72.85
2023-04-01T02:04:44.283Z,72.33
2023-04-01T02:07:19.515Z,72.85
2023-04-01T02:09:49.184Z,72.37
2023-04-01T02:12:19.172Z,73.04
2023-04-01T02:14:53.879Z,72.92
2023-04-01T02:17:29.850Z,72.75
2023-04-01T02:20:05.826Z,72.82
2023-04-01T02:22:42.563Z,73.10
2023-04-01T02:25:16.908Z,73.51
2023-04-01T02:27:54.052Z,72.79
2023-04-01T02:30:23.919Z,73.10
2023-04-01T02:32:55.153Z,73.37
2023-04-01T02:35:26.735Z,72.96
2023-04-01T02:37:59.860Z,72.64
2023-04-01T02:40:29.918Z,73.16
2023-04-01T02:42:57.827Z,73.29
2023-04-01T02:45:25.921Z,72.35
2023-04-01T02:47:55.456Z,72.42
2023-04-01T02:50:26.370Z,72.94
2023-04-01T02:52:59.110Z,72.75
2023-04-01T02:55:28.806Z,72.75
2023-04-01T02:58:01.010Z,73.00
2023-04-01T03:00:32.081Z,73.41
2023-04-01T03:03:08.224Z,73.72
2023-04-01T03:05:37.981Z,73.18
2023-04-01T03:08:09.049Z,73.73
2023-04-01T03:10:40.482Z,73.28
2023-04-01T03:13:08.760Z,73.63
2023-04-01T03:15:38.920Z,74.38
2023-04-01T03:18:08.869Z,73.88
2023-04-01T03:20:38.700Z,73.69
2023-04-01T03:23:09.892Z,73.96
2023-04-01T03:25:37.755Z,74.49
2023-04-01T03:28:20.011Z,73.98
2023-04-01T03:30:51.404Z,74.55
2023-04-01T03:33:23.005Z,74.66
2023-04-01T03:35:53.382Z,74.78
2023-04-01T03:38:28.142Z,75.21
2023-04-01T03:40:58.849Z,75.94
2023-04-01T03:43:27.310Z,75.75
2023-04-01T03:45:59.671Z,76.17
2023-04-01T03:48:30.302Z,75.85
2023-04-01T03:51:01.414Z,75.87
2023-04-01T03:53:34.807Z,75.59
2023-04-01T03:56:10.425Z,76.41
2023-04-01T03:58:39.811Z,75.42
2023-04-01T04:01:17.978Z,75.20
2023-04-01T04:03:51.667Z,75.79
2023-04-01T04:06:27.980Z,75.31
2023-04-01T04:09:03.352Z,74.96
2023-04-01T04:11:34.299Z,74.89
2023-04-01T04:14:06.440Z,75.04
2023-04-01T04:16:37.603Z,74.78
2023-04-01T04:19:11.146Z,75.28
2023-04-01T04:21:39.283Z,74.89
2023-04-01T04:24:12.053Z,75.60
2023-04-01T04:26:43.070Z,74.94
2023-04-01T04:29:12.604Z,75.24
2023-04-01T04:31:40.825Z,75.27
2023-04-01T04:34:08.832Z,75.20
2023-04-01T04:36:38.030Z,75.44
2023-04-01T04:39:09.202Z,75.50
2023-04-01T04:41:41.314Z,75.37
2023-04-01T04:44:10.415Z,75.86
2023-04-01T04:46:40.335Z,75.09
2023-04-01T04:49:09.880Z,75.63
2023-04-01T04:51:39.200Z,75.64
2023-04-01T04:54:10.604Z,75.90
2023-04-01T04:56:41.634Z,75.82
2023-04-01T04:59:10.485Z,76.04
2023-04-01T05:01:38.955Z,76.00
2023-04-01T05:04:07.163Z,76.28
2023-04-01T05:06:35.538Z,76.80
2023-04-01T05:09:06.306Z,76.43
2023-04-01T05:11:36.401Z,76.94
2023-04-01T05:14:11.886Z,77.65
2023-04-01T05:16:41.738Z,77.86
2023-04-01T05:19:11.660Z,78.28
2023-04-01T05:21:43.250Z,78.02
2023-04-01T05:24:14.491Z,77.57
2023-04-01T05:26:43.064Z,77.83
2023-04-01T05:29:17.125Z,77.48
2023-04-01T05:31:45.545Z,77.03
2023-04-01T05:34:16.600Z,77.07
2023-04-01T05:36:45.145Z,76.99
2023-04-01T05:39:14.016Z,77.48
2023-04-01T05:41:42.588Z,77.48
2023-04-01T05:44:16.914Z,77.85
2023-04-01T05:46:45.783Z,78.01
2023-04-01T05:49:16.078Z,78.18
2023-04-01T05:51:46.274Z,78.57
2023-04-01T05:54:17.300Z,79.08
2023-04-01T05:56:48.224Z,79.75
2023-04-01T05:59:20.962Z,80.22
2023-04-01T06:01:49.356Z,80.46
2023-04-01T06:04:20.600Z,80.50
2023-04-01T06:06:51.102Z,81.16
2023-04-01T06:09:35.288Z,81.80
2023-04-01T06:12:20.631Z,82.33
2023-04-01T06:15:05.901Z,82.41
2023-04-01T06:17:55.124Z,82.80
2023-04-01T06:20:30.776Z,82.63
2023-04-01T06:23:23.184Z,81.59
2023-04-01T06:26:17.240Z,81.67
2023-04-01T06:29:18.584Z,80.94
2023-04-01T06:32:08.717Z,81.96
2023-04-01T06:34:52.969Z,80.95
2023-04-01T06:37:45.851Z,81.43
2023-04-01T06:40:40.303Z,80.74
2023-04-01T06:43:19.353Z,80.19
2023-04-01T06:45:56.048Z,80.53
2023-04-01T06:48:41.139Z,80.55
2023-04-01T06:51:23.759Z,81.03
2023-04-01T06:54:01.903Z,79.46
2023-04-01T06:56:34.758Z,80.65
2023-04-01T06:59:09.126Z,80.09
2023-04-01T07:01:42.765Z,80.05
2023-04-01T07:04:19.824Z,80.05
2023-04-01T07:06:52.764Z,79.87
2023-04-01T07:09:23.347Z,79.82
2023-04-01T07:11:56.060Z,79.60
2023-04-01T07:14:33.160Z,80.27
2023-04-01T07:17:08.123Z,80.59
2023-04-01T07:19:47.259Z,81.22
2023-04-01T07:22:28.301Z,82.34
2023-04-01T07:24:59.126Z,82.62
2023-04-01T07:27:27.761Z,82.15
2023-04-01T07:29:58.801Z,82.26
2023-04-01T07:32:43.235Z,82.27
2023-04-01T07:35:31.598Z,82.84
2023-04-01T07:38:27.089Z,82.19
2023-04-01T07:41:04.541Z,82.89
2023-04-01T07:44:31.259Z,82.08
2023-04-01T07:47:20.174Z,83.00
2023-04-01T07:50:02.548Z,82.13
2023-04-01T07:52:40.893Z,83.00
2023-04-01T07:55:19.684Z,82.42
2023-04-01T07:57:56.050Z,81.58
2023-04-01T08:00:29.356Z,81.82
2023-04-01T08:03:19.716Z,81.88
2023-04-01T08:06:00.128Z,81.83
2023-04-01T08:12:07.235Z,81.12
2023-04-01T08:14:45.932Z,79.95
2023-04-01T08:17:22.110Z,79.61
2023-04-01T08:20:12.392Z,79.02
2023-04-01T08:22:52.705Z,78.89
2023-04-01T08:25:32.029Z,78.59
2023-04-01T08:28:05.783Z,79.16
2023-04-01T08:30:43.356Z,78.72
2023-04-01T08:33:17.966Z,78.24
2023-04-01T08:35:54.064Z,77.98
2023-04-01T08:38:33.898Z,78.53
2023-04-01T08:41:25.351Z,78.94
2023-04-01T08:44:20.345Z,79.62
2023-04-01T08:47:11.744Z,79.13
2023-04-01T08:49:58.730Z,81.27
2023-04-01T08:52:40.688Z,79.76
2023-04-01T08:55:36.648Z,80.76
2023-04-01T08:58:44.868Z,79.95
2023-04-01T09:01:30.148Z,81.46
2023-04-01T09:04:24.290Z,80.70
2023-04-01T09:07:15.085Z,81.72
2023-04-01T09:10:42.197Z,80.36
2023-04-01T09:13:51.741Z,81.24
2023-04-01T09:16:58.278Z,82.27
2023-04-01T09:19:40.224Z,82.12
2023-04-01T09:22:28.565Z,80.89
2023-04-01T09:25:40.796Z,81.60
2023-04-01T09:28:17.509Z,82.62
2023-04-01T09:31:18.249Z,83.64
2023-04-01T09:34:20.476Z,82.59
2023-04-01T09:37:22.269Z,82.19
2023-04-01T09:40:13.375Z,83.09
2023-04-01T09:42:47.301Z,82.40
2023-04-01T09:45:48.289Z,82.74
2023-04-01T09:48:29.644Z,82.81
2023-04-01T09:51:09.559Z,83.45
2023-04-01T09:54:00.143Z,84.90
2023-04-01T09:57:15.201Z,83.53
2023-04-01T10:00:07.121Z,83.57
2023-04-01T10:03:00.697Z,84.08
2023-04-01T10:06:17.239Z,82.91
2023-04-01T10:09:04.765Z,82.94
2023-04-01T10:12:24.479Z,82.71
2023-04-01T10:15:45.158Z,83.21
2023-04-01T10:18:41.546Z,84.78
2023-04-01T10:21:52.664Z,84.36
2023-04-01T10:24:52.286Z,85.49
2023-04-01T10:28:10.289Z,85.40
2023-04-01T10:31:10.832Z,84.87
2023-04-01T10:34:16.674Z,85.13
2023-04-01T10:37:01.283Z,84.80
2023-04-01T10:40:09.526Z,85.13
2023-04-01T10:43:08.732Z,85.02
2023-04-01T10:46:15.605Z,85.17
2023-04-01T10:49:32.023Z,84.68
2023-04-01T10:52:38.219Z,84.12
2023-04-01T10:55:48.762Z,83.24
2023-04-01T10:58:58.709Z,84.56
2023-04-01T11:02:12.382Z,84.16
2023-04-01T11:05:37.447Z,85.17
2023-04-01T11:08:33.547Z,84.77
2023-04-01T11:11:42.774Z,85.20
2023-04-01T11:14:51.254Z,84.50
2023-04-01T11:18:07.408Z,83.84
2023-04-01T11:21:17.470Z,83.39
2023-04-01T11:24:22.392Z,84.18
2023-04-01T11:27:04.609Z,82.72
2023-04-01T11:30:05.317Z,82.65
2023-04-01T11:32:57.295Z,81.20
2023-04-01T11:35:59.193Z,81.58
2023-04-01T11:38:52.868Z,80.57
2023-04-01T11:41:35.037Z,80.65
2023-04-01T11:44:23.073Z,81.25
2023-04-01T11:47:08.722Z,81.21
2023-04-01T11:49:57.246Z,81.70
2023-04-01T11:53:00.469Z,81.34
2023-04-01T11:55:44.869Z,81.40
2023-04-01T11:58:39.283Z,80.80
2023-04-01T12:01:20.765Z,79.09
2023-04-01T12:04:19.038Z,79.86
2023-04-01T12:06:59.774Z,79.33
2023-04-01T12:09:37.260Z,78.67
2023-04-01T12:12:18.337Z,79.14
2023-04-01T12:14:57.770Z,79.11
2023-04-01T12:17:37.001Z,79.54
2023-04-01T12:20:29.488Z,80.32
2023-04-01T12:23:11.525Z,82.24
2023-04-01T12:26:06.937Z,83.96
2023-04-01T12:28:51.353Z,86.53
2023-04-01T12:31:30.174Z,85.99
2023-04-01T12:34:33.485Z,86.55
2023-04-01T12:37:14.987Z,86.28
2023-04-01T12:40:19.695Z,86.76
2023-04-01T12:43:01.064Z,88.94
2023-04-01T12:45:35.596Z,88.68
2023-04-01T12:48:42.461Z,87.07
2023-04-01T12:51:38.905Z,87.89
2023-04-01T12:54:52.407Z,89.04
2023-04-01T12:57:46.441Z,88.52
2023-04-01T13:00:31.083Z,89.00
2023-04-01T13:03:19.749Z,89.87
2023-04-01T13:06:21.294Z,88.66
2023-04-01T13:09:03.745Z,88.73
2023-04-01T13:11:44.683Z,89.35
2023-04-01T13:14:35.487Z,88.59
2023-04-01T13:17:16.188Z,89.95
2023-04-01T13:20:02.402Z,88.88
2023-04-01T13:22:45.278Z,89.74
2023-04-01T13:25:29.364Z,87.64
2023-04-01T13:28:06.645Z,88.02
2023-04-01T13:30:41.579Z,86.84
2023-04-01T13:33:24.860Z,88.63
2023-04-01T13:36:15.277Z,86.30
2023-04-01T13:39:00.499Z,85.84
2023-04-01T13:41:49.150Z,86.14
2023-04-01T13:44:25.411Z,84.54
2023-04-01T13:47:11.512Z,83.14
2023-04-01T13:50:07.044Z,84.17
2023-04-01T13:53:04.297Z,80.75
2023-04-01T13:55:55.877Z,79.69
2023-04-01T13:59:05.724Z,81.37
2023-04-01T14:01:45.925Z,81.21
2023-04-01T14:04:50.241Z,79.95
2023-04-01T14:07:39.123Z,81.75
2023-04-01T14:10:21.112Z,82.17
2023-04-01T14:12:58.948Z,82.69
2023-04-01T14:15:53.595Z,82.13
2023-04-01T14:18:38.141Z,82.17
2023-04-01T14:21:25.347Z,79.71
2023-04-01T14:24:28.882Z,77.01
2023-04-01T14:27:20.550Z,79.47
2023-04-01T14:30:04.491Z,79.74
2023-04-01T14:32:45.560Z,80.94
2023-04-01T14:35:44.698Z,74.55
2023-04-01T14:38:55.661Z,75.38
2023-04-01T14:41:48.569Z,78.79
2023-04-01T14:45:08.068Z,78.09
2023-04-01T14:47:53.357Z,76.77
2023-04-01T14:50:34.502Z,76.00
2023-04-01T14:53:17.730Z,77.74
2023-04-01T14:55:53.941Z,73.22
2023-04-01T14:58:41.232Z,76.62
2023-04-01T15:01:48.980Z,78.88
2023-04-01T15:05:03.193Z,78.80
2023-04-01T15:08:30.032Z,77.53
2023-04-01T15:11:27.909Z,77.13
2023-04-01T15:14:26.210Z,77.52
2023-04-01T15:17:14.192Z,77.46
2023-04-01T15:20:03.866Z,77.44
2023-04-01T15:22:50.873Z,75.80
2023-04-01T15:25:32.601Z,75.57
2023-04-01T15:28:15.273Z,76.13
2023-04-01T15:31:02.476Z,77.35
2023-04-01T15:33:52.816Z,78.23
2023-04-01T15:36:41.432Z,77.10
2023-04-01T15:39:17.838Z,79.45
2023-04-01T15:42:26.303Z,81.29
2023-04-01T15:45:22.056Z,81.18
2023-04-01T15:48:01.427Z,80.19
2023-04-01T15:51:06.248Z,79.48
2023-04-01T15:54:02.851Z,79.12
2023-04-01T15:57:07.101Z,78.22
2023-04-01T16:00:06.047Z,78.85
2023-04-01T16:02:45.233Z,79.85
2023-04-01T16:05:40.747Z,80.60
2023-04-01T16:08:41.071Z,81.33
2023-04-01T16:11:23.951Z,81.75
2023-04-01T16:14:10.593Z,81.95
2023-04-01T16:16:59.137Z,82.18
2023-04-01T16:19:46.685Z,82.56
2023-04-01T16:22:23.514Z,82.07
2023-04-01T16:25:21.213Z,83.22
2023-04-01T16:28:06.161Z,81.52
2023-04-01T16:30:40.018Z,81.52
2023-04-01T16:33:17.336Z,82.09
2023-04-01T16:36:13.798Z,81.85
2023-04-01T16:38:59.468Z,81.39
2023-04-01T16:43:02.112Z,81.42
2023-04-01T16:45:33.453Z,81.43
2023-04-01T16:48:21.954Z,82.34
2023-04-01T16:50:57.919Z,82.10
2023-04-01T16:53:39.828Z,81.33
2023-04-01T16:56:15.083Z,81.88
2023-04-01T16:59:01.943Z,81.23
2023-04-01T17:01:35.257Z,80.85
2023-04-01T17:04:15.794Z,80.95
2023-04-01T17:06:50.613Z,81.28
2023-04-01T17:09:36.570Z,81.62
2023-04-01T17:12:15.696Z,82.62
2023-04-01T17:14:56.637Z,82.37
2023-04-01T17:17:40.240Z,82.13
2023-04-01T17:20:17.610Z,81.27
2023-04-01T17:22:55.821Z,81.36
2023-04-01T17:25:36.300Z,81.61
2023-04-01T17:28:16.998Z,82.54
2023-04-01T17:30:52.401Z,81.71
2023-04-01T17:33:38.139Z,82.28
2023-04-01T17:36:14.665Z,83.37
2023-04-01T17:39:15.600Z,83.43
2023-04-01T17:41:51.450Z,83.63
2023-04-01T17:44:36.106Z,84.34
2023-04-01T17:47:20.516Z,84.52
2023-04-01T17:50:04.590Z,84.49
2023-04-01T17:52:40.165Z,83.95
2023-04-01T17:55:34.071Z,83.92
2023-04-01T17:58:11.003Z,84.60
2023-04-01T18:00:54.619Z,84.51
2023-04-01T18:03:58.493Z,84.56
2023-04-01T18:06:51.906Z,84.78
2023-04-01T18:10:06.332Z,84.04
2023-04-01T18:12:49.910Z,83.59
2023-04-01T18:15:46.784Z,83.08
2023-04-01T18:21:53.999Z,82.99
2023-04-01T18:27:34.127Z,82.22
2023-04-01T18:30:11.242Z,82.60
2023-04-01T18:32:54.771Z,82.64
2023-04-01T18:35:37.547Z,83.24
2023-04-01T18:41:48.512Z,83.45
2023-04-01T18:44:30.983Z,84.36
2023-04-01T18:47:19.486Z,83.73
2023-04-01T18:49:59.646Z,84.77
2023-04-01T18:55:49.962Z,84.53
2023-04-01T18:58:46.407Z,84.40
2023-04-01T19:01:33.876Z,85.25
2023-04-01T19:04:31.792Z,84.51
2023-04-01T19:07:04.423Z,84.29
2023-04-01T19:09:46.755Z,84.07
2023-04-01T19:12:50.658Z,83.75
2023-04-01T19:18:55.726Z,84.25
2023-04-01T19:21:37.995Z,83.54
2023-04-01T19:24:43.505Z,83.06
2023-04-01T19:27:31.212Z,82.81
2023-04-01T19:30:19.404Z,82.70
2023-04-01T19:32:59.190Z,83.50
2023-04-01T19:35:40.700Z,83.91
2023-04-01T19:38:17.926Z,83.09
2023-04-01T19:40:59.005Z,83.76
2023-04-01T19:43:51.371Z,83.65
2023-04-01T19:46:32.963Z,83.32
2023-04-01T19:49:22.654Z,83.20
2023-04-01T19:51:58.767Z,83.55
2023-04-01T19:54:41.719Z,83.64
2023-04-01T19:57:25.848Z,83.44
2023-04-01T20:00:05.248Z,83.16
2023-04-01T20:02:53.162Z,82.50
2023-04-01T20:05:37.495Z,82.67
2023-04-01T20:08:17.457Z,82.62
2023-04-01T20:10:56.384Z,82.89
2023-04-01T20:13:35.634Z,83.16
2023-04-01T20:16:07.269Z,83.19
2023-04-01T20:18:48.788Z,83.58
2023-04-01T20:21:31.234Z,84.01
2023-04-01T20:24:04.956Z,84.20
2023-04-01T20:26:41.868Z,84.30
2023-04-01T20:29:32.925Z,83.94
2023-04-01T20:32:13.881Z,83.76
2023-04-01T20:35:01.527Z,83.21
2023-04-01T20:37:43.094Z,82.70
2023-04-01T20:40:32.501Z,82.76
2023-04-01T20:43:23.217Z,82.37
2023-04-01T20:45:58.976Z,82.43
2023-04-01T20:48:44.100Z,83.16
2023-04-01T20:51:17.858Z,81.92
2023-04-01T20:53:56.605Z,81.74
2023-04-01T20:56:37.249Z,81.97
2023-04-01T20:59:27.247Z,82.90
2023-04-01T21:02:06.823Z,84.35
2023-04-01T21:04:56.232Z,85.16
2023-04-01T21:07:35.877Z,86.02
2023-04-01T21:10:22.831Z,86.74
2023-04-01T21:13:06.065Z,86.86
2023-04-01T21:15:47.659Z,86.41
2023-04-01T21:18:39.212Z,86.92
2023-04-01T21:21:37.650Z,86.48
2023-04-01T21:24:35.817Z,87.21
2023-04-01T21:27:21.648Z,87.07
2023-04-01T21:29:58.513Z,87.76
2023-04-01T21:33:02.826Z,89.30
2023-04-01T21:35:41.259Z,90.55
2023-04-01T21:38:33.889Z,90.84
2023-04-01T21:41:27.523Z,91.19
2023-04-01T21:44:37.174Z,91.20
2023-04-01T21:47:23.800Z,91.97
2023-04-01T21:50:32.616Z,91.57
2023-04-01T21:53:33.784Z,90.85
2023-04-01T21:56:31.894Z,89.95
2023-04-01T21:59:38.098Z,89.81
2023-04-01T22:02:36.205Z,89.59
2023-04-01T22:05:12.796Z,88.92
2023-04-01T22:07:54.756Z,88.98
2023-04-01T22:10:35.412Z,89.20
2023-04-01T22:13:17.643Z,89.68
2023-04-01T22:16:02.004Z,88.19
2023-04-01T22:18:35.853Z,88.81
2023-04-01T22:21:17.484Z,89.41
2023-04-01T22:23:50.752Z,89.82
2023-04-01T22:26:26.493Z,90.53
2023-04-01T22:29:05.122Z,89.72
2023-04-01T22:31:41.097Z,89.93
2023-04-01T22:34:19.333Z,89.89
2023-04-01T22:36:58.055Z,89.75
2023-04-01T22:39:42.212Z,90.12
2023-04-01T22:42:26.514Z,89.80
2023-04-01T22:45:11.673Z,90.10
2023-04-01T22:47:52.782Z,89.90
2023-04-01T22:50:23.978Z,89.72
2023-04-01T22:53:03.034Z,89.77
2023-04-01T22:55:38.048Z,89.05
2023-04-01T22:58:33.528Z,89.25
2023-04-01T23:01:11.089Z,89.22
2023-04-01T23:03:43.557Z,88.86
2023-04-01T23:06:19.959Z,90.10
2023-04-01T23:09:02.410Z,88.95
2023-04-01T23:11:34.361Z,88.70
2023-04-01T23:14:35.169Z,88.53
2023-04-01T23:17:28.623Z,88.61
2023-04-01T23:20:08.593Z,88.11
2023-04-01T23:22:40.987Z,88.87
2023-04-01T23:25:24.997Z,88.21
2023-04-01T23:28:00.968Z,88.86
2023-04-01T23:30:58.270Z,89.21
2023-04-01T23:33:36.643Z,89.92
2023-04-01T23:36:15.219Z,90.37
2023-04-01T23:38:57.543Z,90.86
2023-04-01T23:41:29.023Z,90.74
2023-04-01T23:44:03.774Z,90.47
2023-04-01T23:46:34.487Z,90.54
2023-04-01T23:49:08.196Z,91.03
2023-04-01T23:51:41.465Z,91.23
2023-04-01T23:54:22.982Z,91.29
2023-04-01T23:56:57.284Z,91.13
2023-04-01T23:59:31.694Z,90.57
